Flight Track Log - Related Links

Times and Time Zones

All times are in EDT time to prevent confusion due to time zone crossing. See the UPS35 flight status page for this flight to view local times or setup timezone preferences in your user account.

Time Position Orientation Groundspeed Altitude Reporting Facility
EDT Latitude Longitude Course Direction KTS MPH feet Rate Location/Type
Sun 06:33:31 AM -33.9310 151.1690 348° North 5 6  Level FlightAware
Sun 06:33:56 AM -33.9300 151.1690 360° North 6 7 17 Level FlightAware
Sun 06:34:31 AM -33.9300 151.1700 90° East 3 3 18 Level FlightAware
Sun 06:37:00 AM -33.6607 150.9726 329° Northwest  Level FlightAware
Sun 06:38:00 AM -33.5522 150.8935 329° Northwest  Level FlightAware
Sun 06:38:21 AM -33.9300 151.1720 329° Northwest  Level FlightAware
Sun 06:39:16 AM -33.9360 151.1730 172° South 115 132 86 Level FlightAware
Sun 06:39:31 AM -33.9480 151.1760 168° South 161 185 100 2,400 Climbing FlightAware
Sun 06:40:01 AM -33.9700 151.1750 182° South 165 190 1,800 3,055 Climbing FlightAware
Sun 06:40:26 AM -33.9890 151.1720 187° South 167 192 2,900 1,636 Climbing FlightAware
Sun 06:40:56 AM -34.0150 151.1670 189° South 215 247 3,300 1,636 Climbing FlightAware
Sun 06:41:21 AM -34.0440 151.1630 187° South 243 280 4,400 3,055 Climbing FlightAware
Sun 06:41:51 AM -34.0800 151.1580 187° South 263 303 6,100 3,529 Climbing FlightAware
Sun 06:41:55 AM -34.0805 151.1581 187° South 259 298 6,400 3,600 Climbing Aus
Sun 06:42:01 AM -34.0920 151.1560 188° South 276 318 6,700 3,833 Climbing FlightAware
Sun 06:42:31 AM -34.1300 151.1520 185° South 279 321 8,700 4,000 Climbing FlightAware
Sun 06:43:01 AM -34.1690 151.1430 191° South 289 333 10,700 3,600 Climbing FlightAware
Sun 06:43:16 AM -34.1820 151.1330 212° Southwest 287 330 11,400 3,120 Climbing FlightAware
Sun 06:43:26 AM -34.1930 151.1190 226° Southwest 302 348 12,000 3,600 Climbing FlightAware
Sun 06:43:41 AM -34.2010 151.0940 249° West 307 353 12,900 3,067 Climbing FlightAware
Sun 06:44:11 AM -34.1910 151.0440 284° West 321 369 14,300 2,591 Climbing FlightAware
Sun 06:44:25 AM -34.1740 151.0260 319° Northwest 324 373 14,800 2,000 Climbing FlightAware
Sun 06:45:05 AM -34.1110 151.0040 344° North 362 417 16,100 2,077 Climbing FlightAware
Sun 06:45:43 AM -34.0510 150.9810 342° North 395 455 17,500 2,925 Climbing FlightAware
Sun 06:46:25 AM -33.9780 150.9480 339° North 398 458 20,000 3,035 Climbing FlightAware
Sun 06:47:08 AM -33.9010 150.9130 339° North 415 478 21,800 2,214 Climbing FlightAware
Sun 06:47:49 AM -33.8290 150.8810 340° North 432 497 23,100 1,852 Climbing FlightAware
Sun 06:48:29 AM -33.7550 150.8480 340° North 451 519 24,300 2,429 Climbing FlightAware
Sun 06:48:31 AM -33.7392 150.8409 340° North 431 496 24,800 2,571 Climbing Aus
Sun 06:49:11 AM -33.6710 150.8100 339° North 457 526 26,100 2,087 Climbing FlightAware
Sun 06:49:40 AM -33.6090 150.7820 339° North 464 534 27,200 2,123 Climbing FlightAware
Sun 06:50:16 AM -33.5322 150.7573 339° North 458 527 28,400 1,091 Climbing Aus
Sun 06:50:24 AM -33.5190 150.7540 339° North 452 520 28,000 -490 Descending FlightAware
Sun 06:51:05 AM -33.4380 150.7280 345° North 454 522 28,000  Level FlightAware
Sun 06:51:39 AM -33.3660 150.7080 347° North 456 525 28,000  Level FlightAware
Sun 06:52:14 AM -33.2930 150.6860 346° North 458 527 28,000 364 Level FlightAware
Sun 06:52:45 AM -33.2259 150.6658 346° North 458 527 28,400  Climbing Aus
Sun 06:52:55 AM -33.2090 150.6610 346° North 460 529 28,000 1,080 Descending FlightAware
Sun 06:53:35 AM -33.1240 150.6360 346° North 457 526 29,300 2,605 Climbing FlightAware
Sun 06:54:11 AM -33.0473 150.6129 346° North 441 507 31,300 2,512 Climbing Aus
Sun 06:54:18 AM -33.0380 150.6100 346° North 455 524 31,100 1,731 Descending FlightAware
Sun 06:55:03 AM -32.9450 150.5820 346° North 448 516 32,800 2,047 Climbing FlightAware
Sun 06:55:43 AM -32.8660 150.5590 346° North 445 512 34,000 1,390 Climbing FlightAware
Sun 06:56:25 AM -32.7840 150.5350 346° North 450 518 34,700 619 Climbing FlightAware
Sun 06:57:20 AM -32.6730 150.5030 346° North 445 512 35,000 182 Climbing FlightAware
Sun 06:58:04 AM -32.5800 150.4750 346° North 448 516 35,000 522 Level FlightAware
Sun 06:58:06 AM -32.5740 150.4739 346° North 439 505 35,400  Climbing Aus
Sun 06:58:39 AM -32.5100 150.4550 346° North 450 518 35,000 -353 Descending FlightAware
Sun 06:59:14 AM -32.4450 150.4360 346° North 451 519 35,000 439 Level FlightAware
Sun 06:59:20 AM -32.4222 150.4298 346° North 445 512 35,300  Climbing Aus
Sun 07:00:10 AM -32.3250 150.4010 346° North 445 512 35,000 -225 Descending FlightAware
Sun 07:00:40 AM -32.2620 150.3830 346° North 446 513 35,000 257 Level FlightAware
Sun 07:01:20 AM -32.1779 150.3589 346° North 446 513 35,300  Climbing Aus
Sun 07:01:25 AM -32.1690 150.3560 346° North 447 514 35,000 -400 Descending FlightAware
Sun 07:02:05 AM -32.0870 150.3330 347° North 450 518 35,000  Level FlightAware
Sun 07:02:51 AM -31.9950 150.3060 346° North 461 531 35,000 67 Level FlightAware
Sun 07:03:35 AM -31.9020 150.2790 346° North 461 531 35,100 71 Climbing FlightAware
Sun 07:04:15 AM -31.8170 150.2540 346° North 451 519 35,100 -75 Level FlightAware
Sun 07:04:55 AM -31.7360 150.2310 346° North 448 516 35,000 -75 Descending FlightAware
Sun 07:05:35 AM -31.6520 150.2070 346° North 447 514 35,000  Level FlightAware
Sun 07:06:11 AM -31.5800 150.1860 346° North 447 514 35,000  Level FlightAware
Sun 07:06:56 AM -31.4870 150.1600 347° North 445 512 35,000  Level FlightAware
Sun 07:07:36 AM -31.4080 150.1370 346° North 451 519 35,000  Level FlightAware
Sun 07:08:27 AM -31.3030 150.1080 347° North 450 518 35,000  Level FlightAware
Sun 07:09:02 AM -31.2340 150.0880 346° North 448 516 35,000  Level FlightAware
Sun 07:09:42 AM -31.1530 150.0650 346° North 447 514 35,000 297 Level FlightAware
Sun 07:10:43 AM -31.0370 150.0320 346° North 449 517 35,500 913 Climbing FlightAware
Sun 07:11:14 AM -30.9675 150.0129 346° North 449 517 36,400 638 Climbing Aus
Sun 07:11:30 AM -30.9360 150.0040 346° North 448 516 36,000 -429 Descending FlightAware
Sun 07:12:10 AM -30.8560 149.9810 346° North 449 517 36,000  Level FlightAware
Sun 07:12:45 AM -30.7860 149.9610 346° North 444 511 36,000  Level FlightAware
Sun 07:13:25 AM -30.7020 149.9380 347° North 448 516 36,000  Level FlightAware
Sun 07:14:22 AM -30.6020 149.9100 346° North 447 514 36,000  Level FlightAware
Sun 07:14:46 AM -30.5610 149.8980 346° North 447 514 36,000  Level FlightAware
Sun 07:15:34 AM -30.4790 149.8740 346° North 447 514 36,000 310 Level FlightAware
Sun 07:15:44 AM -30.4210 149.8593 346° North 438 504 36,300  Climbing Aus
Sun 07:16:10 AM -30.4180 149.8560 346° North 447 514 36,000 -243 Descending FlightAware
Sun 07:16:58 AM -30.3360 149.8330 346° North 447 514 36,000  Level FlightAware
Sun 07:17:23 AM -30.2930 149.8200 345° North 447 514 36,000  Level FlightAware
Sun 07:18:12 AM -30.2100 149.7960 346° North 447 514 36,000 222 Level FlightAware
Sun 07:18:44 AM -30.0545 149.7741 346° North 449 517 36,300  Climbing Aus
Sun 07:18:48 AM -30.1480 149.7790 346° North 447 514 36,000 -340 Descending FlightAware
Sun 07:19:37 AM -30.0650 149.7550 346° North 447 514 36,000  Level FlightAware
Sun 07:20:26 AM -29.9810 149.7300 346° North 447 514 36,000  Level FlightAware
Sun 07:20:50 AM -29.9400 149.7190 347° North 447 514 36,000  Level FlightAware
Sun 07:21:26 AM -29.8790 149.7010 347° North 447 514 36,000 462 Level FlightAware
Sun 07:21:29 AM -29.7113 149.7002 347° North 455 524 36,300  Climbing Aus
Sun 07:22:14 AM -29.7970 149.6780 346° North 447 514 36,000 -71 Descending FlightAware
Sun 07:22:54 AM -29.5334 149.6622 346° North 454 522 36,200  Climbing Aus
Sun 07:23:02 AM -29.7150 149.6540 346° North 447 514 36,000 -273 Descending FlightAware
Sun 07:23:38 AM -29.6540 149.6360 346° North 447 514 36,000 186 Level FlightAware
Sun 07:24:39 AM -29.3140 149.6162 346° North 455 524 36,300 84 Climbing Aus
Sun 07:27:13 AM -28.9905 149.5484 350° North 455 524 36,300  Level Aus
Sun 07:28:38 AM -28.8134 149.5112 350° North 455 524 36,300  Level Aus
Sun 07:30:27 AM -28.5893 149.4658 350° North 451 519 36,300 -23 Level Aus
Sun 07:32:58 AM -28.2780 149.4001 349° North 447 514 36,200  Descending Aus
Sun 07:34:18 AM -28.1200 149.3503 344° North 438 504 36,300 32 Climbing Aus
Sun 07:36:03 AM -27.9138 149.2749 342° North 444 511 36,300 -23 Level Aus
Sun 07:38:37 AM -27.6150 149.1662 342° North 432 497 36,200  Descending Aus
Sun 07:39:52 AM -27.4716 149.1145 342° North 430 495 36,300 34 Climbing Aus
Sun 07:41:32 AM -27.2807 149.0453 342° North 432 497 36,300  Level Aus
Sun 07:44:22 AM -26.9544 148.9283 342° North 436 502 36,300  Level Aus
Sun 07:45:57 AM -26.7717 148.8635 342° North 435 501 36,300 -32 Level Aus
Sun 07:47:31 AM -26.5891 148.7986 342° North 434 499 36,200 -33 Descending Aus
Sun 07:49:01 AM -26.4129 148.7432 344° North 436 502 36,200  Level Aus
Sun 07:50:11 AM -26.2735 148.7033 346° North 446 513 36,200 75 Level Aus
Sun 07:51:41 AM -26.0907 148.6495 345° North 454 522 36,400 43 Climbing Aus
Sun 07:52:31 AM -25.9885 148.6199 345° North 456 525 36,300 -63 Descending Aus
Sun 07:53:16 AM -25.8974 148.5931 345° North 452 520 36,300 -63 Level Aus
Sun 07:54:06 AM -25.7963 148.5634 345° North 450 518 36,200 -71 Descending Aus
Sun 07:54:41 AM -25.7270 148.5429 345° North 444 511 36,200  Level Aus
Sun 07:55:31 AM -25.6291 148.5152 346° North 434 499 36,200  Level Aus
Sun 07:56:06 AM -25.5614 148.4958 346° North 431 496 36,200 -185 Level Aus
Sun 07:56:36 AM -25.5770 148.5000 345° North 437 503 36,000  Descending FlightAware
Sun 07:56:51 AM -25.4725 148.4701 345° North 438 504 36,200  Climbing Aus
Sun 07:57:33 AM -25.4650 148.4670 345° North 437 503 36,000 -73 Descending FlightAware
Sun 07:58:13 AM -25.3680 148.4400 346° North 447 514 36,100 72 Climbing FlightAware
Sun 07:58:56 AM -25.2810 148.4150 345° North 448 516 36,100  Level FlightAware
Sun 07:59:37 AM -25.1950 148.3900 345° North 447 514 36,100 -77 Level FlightAware
Sun 08:00:14 AM -25.1280 148.3710 346° North 446 513 36,000 -87 Descending FlightAware
Sun 08:00:46 AM -25.0590 148.3510 345° North 445 512 36,000  Level FlightAware
Sun 08:01:27 AM -24.9790 148.3280 345° North 446 513 36,000 135 Level FlightAware
Sun 08:02:15 AM -24.8224 148.2834 345° North 446 513 36,200  Climbing Aus
Sun 08:02:15 AM -24.8830 148.3010 345° North 448 516 36,000 -480 Descending FlightAware
Sun 08:02:40 AM -24.8370 148.2870 345° North 449 517 36,000  Level FlightAware
Sun 08:03:18 AM -24.7600 148.2650 345° North 452 520 36,000 480 Level FlightAware
Sun 08:03:30 AM -24.6701 148.2404 345° North 452 520 36,400 146 Climbing Aus
Sun 08:03:59 AM -24.6600 148.2370 345° North 454 522 36,100 -171 Descending FlightAware
Sun 08:04:05 AM -24.5987 148.2201 345° North 455 524 36,300  Climbing Aus
Sun 08:04:47 AM -24.5710 148.2110 345° North 455 524 36,100  Descending FlightAware
Sun 08:05:20 AM -24.4457 148.1767 345° North 455 524 36,300  Climbing Aus
Sun 08:05:28 AM -24.4960 148.1900 345° North 456 525 36,100 -375 Descending FlightAware
Sun 08:06:08 AM -24.4090 148.1660 346° North 454 522 36,000 83 Descending FlightAware
Sun 08:06:40 AM -24.2832 148.1304 346° North 451 519 36,200  Climbing Aus
Sun 08:06:57 AM -24.3070 148.1370 346° North 452 520 36,000 -364 Descending FlightAware
Sun 08:07:13 AM -24.2720 148.1270 345° North 453 521 36,000 194 Level FlightAware
Sun 08:07:59 AM -24.1207 148.0847 345° North 453 521 36,200  Climbing Aus
Sun 08:08:00 AM -24.1810 148.1010 345° North 453 521 36,000 -364 Descending FlightAware
Sun 08:08:32 AM -24.1080 148.0800 345° North 454 522 36,000  Level FlightAware
Sun 08:08:57 AM -24.0630 148.0680 346° North 457 526 36,000 250 Level FlightAware
Sun 08:09:44 AM -23.9053 148.0244 346° North 458 527 36,300 125 Climbing Aus
Sun 08:09:45 AM -23.9580 148.0380 346° North 457 526 36,100  Descending FlightAware
Sun 08:10:19 AM -23.8336 148.0040 346° North 456 525 36,300  Climbing Aus
Sun 08:10:42 AM -23.8490 148.0080 346° North 458 527 36,100 -92 Descending FlightAware
Sun 08:11:24 AM -23.7010 147.9669 346° North 453 521 36,200 -109 Climbing Aus
Sun 08:11:37 AM -23.6770 147.9590 346° North 454 522 36,000 -226 Descending FlightAware
Sun 08:12:17 AM -23.5960 147.9370 346° North 451 519 36,000  Level FlightAware
Sun 08:12:46 AM -23.5350 147.9200 346° North 449 517 36,000  Level FlightAware
Sun 08:13:31 AM -23.4460 147.8950 346° North 449 517 36,000  Level FlightAware
Sun 08:14:07 AM -23.3730 147.8740 345° North 449 517 36,000  Level FlightAware
Sun 08:14:49 AM -23.2890 147.8510 346° North 449 517 36,000  Level FlightAware
Sun 08:15:37 AM -23.1920 147.8240 346° North 451 519 36,000  Level FlightAware
Sun 08:16:05 AM -23.1330 147.8070 345° North 453 521 36,000  Level FlightAware
Sun 08:16:47 AM -23.0490 147.7840 345° North 455 524 36,000 409 Level FlightAware
Sun 08:16:49 AM -23.0438 147.7837 345° North 454 522 36,300 188 Climbing Aus
Sun 08:17:19 AM -22.9830 147.7660 346° North 457 526 36,100 -156 Descending FlightAware
Sun 08:18:06 AM -22.9380 147.7530 346° North 459 528 36,100 333 Level FlightAware
Sun 08:18:13 AM -22.8688 147.7352 346° North 461 531 36,400  Climbing Aus
Sun 08:18:47 AM -22.8530 147.7300 346° North 461 531 36,100 -316 Descending FlightAware
Sun 08:19:29 AM -22.7140 147.6910 345° North 455 524 36,000 -73 Descending FlightAware
Sun 08:20:09 AM -22.6330 147.6680 345° North 452 520 36,000 160 Level FlightAware
Sun 08:20:44 AM -22.5623 147.6480 345° North 452 520 36,200  Climbing Aus
Sun 08:20:51 AM -22.5490 147.6430 345° North 451 519 36,000 -255 Descending FlightAware
Sun 08:21:31 AM -22.4680 147.6190 345° North 453 521 36,000 154 Level FlightAware
Sun 08:22:09 AM -22.3905 147.5976 345° North 453 521 36,200  Climbing Aus
Sun 08:22:15 AM -22.3790 147.5920 345° North 455 524 36,000 -240 Descending FlightAware
Sun 08:22:59 AM -22.2890 147.5660 345° North 457 526 36,000 71 Level FlightAware
Sun 08:23:39 AM -22.2060 147.5410 344° North 459 528 36,100  Climbing FlightAware
Sun 08:24:19 AM -22.1240 147.5170 345° North 460 529 36,000  Descending FlightAware
Sun 08:24:51 AM -22.0590 147.4980 345° North 461 531 36,100 88 Climbing FlightAware
Sun 08:25:27 AM -21.9840 147.4760 345° North 463 533 36,100 -77 Level FlightAware
Sun 08:26:09 AM -21.8990 147.4510 345° North 462 532 36,000 130 Descending FlightAware
Sun 08:26:13 AM -21.8877 147.4486 345° North 456 525 36,200  Climbing Aus
Sun 08:26:53 AM -21.8060 147.4230 344° North 463 533 36,000  Descending FlightAware
Sun 08:27:33 AM -21.7220 147.3997 344° North 463 533 36,200  Climbing Aus
Sun 08:27:34 AM -21.7200 147.3980 344° North 463 533 36,000 -273 Descending FlightAware
Sun 08:28:17 AM -21.6310 147.3720 344° North 462 532 36,000 245 Level FlightAware
Sun 08:28:23 AM -21.6189 147.3694 344° North 457 526 36,200  Climbing Aus
Sun 08:29:02 AM -21.5390 147.3450 345° North 463 533 36,000 -148 Descending FlightAware
Sun 08:29:44 AM -21.4510 147.3190 345° North 463 533 36,000  Level FlightAware
Sun 08:30:26 AM -21.3650 147.2940 345° North 463 533 36,000  Level FlightAware
Sun 08:31:06 AM -21.2810 147.2700 345° North 463 533 36,000 167 Level FlightAware
Sun 08:31:38 AM -21.2149 147.2516 345° North 465 535 36,200  Climbing Aus
Sun 08:31:38 AM -21.2160 147.2510 345° North 463 533 36,000 -353 Descending FlightAware
Sun 08:32:12 AM -21.1440 147.2300 345° North 465 535 36,000 273 Level FlightAware
Sun 08:32:22 AM -21.1218 147.2243 345° North 458 527 36,200  Climbing Aus
Sun 08:32:56 AM -21.0530 147.2030 345° North 466 536 36,000  Descending FlightAware
Sun 08:33:32 AM -20.9757 147.1820 345° North 466 536 36,200  Climbing Aus
Sun 08:33:36 AM -20.9700 147.1790 345° North 467 537 36,000 -286 Descending FlightAware
Sun 08:34:14 AM -20.8910 147.1560 345° North 469 540 36,000 158 Level FlightAware
Sun 08:34:52 AM -20.8081 147.1335 345° North 467 537 36,200  Climbing Aus
Sun 08:35:05 AM -20.7960 147.1280 345° North 469 540 36,000 -250 Descending FlightAware
Sun 08:35:40 AM -20.7340 147.1090 344° North 469 540 36,000 179 Level FlightAware
Sun 08:36:12 AM -20.6403 147.0847 344° North 469 540 36,200  Climbing Aus
Sun 08:36:28 AM -20.6490 147.0820 344° North 469 540 36,000 -300 Descending FlightAware
Sun 08:36:52 AM -20.6060 147.0690 344° North 469 540 36,000  Level FlightAware
Sun 08:37:52 AM -20.5000 147.0370 344° North 469 540 36,000  Level FlightAware
Sun 08:38:16 AM -20.4570 147.0240 344° North 469 540 36,000  Level FlightAware
Sun 08:38:53 AM -20.3920 147.0040 344° North 469 540 36,000 261 Level FlightAware
Sun 08:39:02 AM -20.2818 146.9817 344° North 470 541 36,200 273 Climbing Aus
Sun 08:39:37 AM -20.2079 146.9607 344° North 471 542 36,200 -324 Level Aus
Sun 08:39:39 AM -20.3100 146.9790 344° North 469 540 36,000  Descending FlightAware
Sun 08:40:12 AM -20.1341 146.9391 344° North 471 542 36,200  Climbing Aus
Sun 08:40:26 AM -20.2270 146.9530 344° North 469 540 36,000 -250 Descending FlightAware
Sun 08:41:00 AM -20.1660 146.9350 345° North 469 540 36,000  Level FlightAware
Sun 08:41:48 AM -20.0810 146.9090 344° North 469 540 36,000  Level FlightAware
Sun 08:42:25 AM -20.0160 146.8890 344° North 469 540 36,000  Level FlightAware
Sun 08:42:51 AM -19.9700 146.8750 344° North 469 540 36,000  Level FlightAware
Sun 08:43:28 AM -19.9040 146.8550 344° North 469 540 36,000 300 Level FlightAware
Sun 08:43:31 AM -19.7097 146.8174 344° North 479 551 36,200  Climbing Aus
Sun 08:44:19 AM -19.8140 146.8270 344° North 469 540 36,000 109 Descending FlightAware
Sun 08:44:26 AM -19.5913 146.7838 344° North 485 558 36,300 346 Climbing Aus
Sun 08:45:11 AM -19.4946 146.7557 344° North 483 556 36,300 -55 Level Aus
Sun 08:46:16 AM -19.3558 146.7169 345° North 482 555 36,200 -63 Descending Aus
Sun 08:46:46 AM -19.2919 146.6977 344° North 483 556 36,200  Level Aus
Sun 08:47:46 AM -19.1645 146.6635 346° North 474 545 36,200  Level Aus
Sun 08:48:21 AM -19.0907 146.6406 344° North 467 537 36,200  Level Aus
Sun 08:49:16 AM -18.9729 146.6078 345° North 467 537 36,200 67 Level Aus
Sun 08:49:51 AM -18.8976 146.5870 345° North 460 529 36,300 63 Climbing Aus
Sun 08:50:51 AM -18.7679 146.5498 345° North 464 534 36,300 -57 Level Aus
Sun 08:51:36 AM -18.6725 146.5229 345° North 458 527 36,200 -63 Descending Aus
Sun 08:52:26 AM -18.5667 146.4935 345° North 455 524 36,200  Level Aus
Sun 08:52:56 AM -18.5041 146.4763 345° North 457 526 36,200  Level Aus
Sun 08:53:31 AM -18.4316 146.4550 344° North 453 521 36,200  Level Aus
Sun 08:54:06 AM -18.3577 146.4341 345° North 455 524 36,200  Level Aus
Sun 08:54:36 AM -18.2943 146.4162 345° North 460 529 36,200 -143 Level Aus
Sun 08:54:48 AM -18.2700 146.4090 345° North 471 542 36,100 -162 Descending FlightAware
Sun 08:55:13 AM -18.2200 146.3950 345° North 472 543 36,100 95 Level FlightAware
Sun 08:55:51 AM -18.1360 146.3716 345° North 460 529 36,200 -150 Climbing Aus
Sun 08:55:53 AM -18.1340 146.3710 345° North 474 545 36,000 -375 Descending FlightAware
Sun 08:56:23 AM -18.0780 146.3550 345° North 475 547 36,000 100 Level FlightAware
Sun 08:56:53 AM -18.0100 146.3360 345° North 475 547 36,100 92 Climbing FlightAware
Sun 08:57:28 AM -18.0100 146.3360 345° North 472 543 36,100 -85 Level FlightAware
Sun 08:58:04 AM -17.8570 146.2940 345° North 470 541 36,000 -80 Descending FlightAware
Sun 08:58:43 AM -17.7800 146.2720 345° North 468 539 36,000 261 Level FlightAware
Sun 08:58:50 AM -17.7551 146.2656 345° North 459 528 36,200 162 Climbing Aus
Sun 08:59:20 AM -17.6921 146.2481 345° North 463 533 36,100 -316 Descending Aus
Sun 08:59:28 AM -17.6800 146.2440 345° North 466 536 36,000 -125 Descending FlightAware
Sun 09:00:08 AM -17.5970 146.2210 345° North 465 535 36,000  Level FlightAware
Sun 09:00:48 AM -17.5120 146.1970 345° North 464 534 36,000  Level FlightAware
Sun 09:01:28 AM -17.4270 146.1740 345° North 463 533 36,000 286 Level FlightAware
Sun 09:01:30 AM -17.4221 146.1725 345° North 457 526 36,200  Climbing Aus
Sun 09:02:13 AM -17.3360 146.1480 345° North 463 533 36,000 -136 Descending FlightAware
Sun 09:02:58 AM -17.2450 146.1230 345° North 463 533 36,000  Level FlightAware
Sun 09:03:38 AM -17.1580 146.0990 345° North 463 533 36,000 286 Level FlightAware
Sun 09:03:40 AM -17.1522 146.0979 345° North 457 526 36,200  Climbing Aus
Sun 09:04:13 AM -17.0870 146.0800 346° North 464 534 36,000  Descending FlightAware
Sun 09:04:45 AM -17.0173 146.0605 346° North 454 522 36,200 109 Climbing Aus
Sun 09:05:08 AM -16.9720 146.0480 346° North 464 534 36,100 -95 Descending FlightAware
Sun 09:05:48 AM -16.8890 146.0250 345° North 465 535 36,100  Level FlightAware
Sun 09:06:34 AM -16.7940 145.9990 345° North 465 535 36,100  Level FlightAware
Sun 09:07:14 AM -16.7090 145.9750 345° North 466 536 36,100 75 Level FlightAware
Sun 09:07:54 AM -16.6215 145.9510 345° North 458 527 36,200 -98 Climbing Aus
Sun 09:08:15 AM -16.5820 145.9400 345° North 465 535 36,000 -207 Descending FlightAware
Sun 09:08:52 AM -16.5040 145.9190 346° North 465 535 36,000  Level FlightAware
Sun 09:09:30 AM -16.4300 145.8980 345° North 466 536 36,000  Level FlightAware
Sun 09:10:07 AM -16.3520 145.8770 345° North 466 536 36,000 273 Level FlightAware
Sun 09:10:14 AM -16.3293 145.8704 345° North 460 529 36,200  Climbing Aus
Sun 09:10:55 AM -16.2460 145.8480 345° North 466 536 36,000 -148 Descending FlightAware
Sun 09:11:35 AM -16.1640 145.8260 346° North 466 536 36,000  Level FlightAware
Sun 09:12:14 AM -16.0840 145.8040 346° North 466 536 36,000 273 Level FlightAware
Sun 09:12:19 AM -16.0681 145.7980 346° North 459 528 36,200 185 Climbing Aus
Sun 09:13:19 AM -15.9429 145.7637 346° North 463 533 36,200 -100 Level Aus
Sun 09:13:19 AM -15.9460 145.7660 346° North 468 539 36,100 -171 Descending FlightAware
Sun 09:13:54 AM -15.8720 145.7460 345° North 468 539 36,100 92 Level FlightAware
Sun 09:14:24 AM -15.8060 145.7264 345° North 461 531 36,200  Climbing Aus
Sun 09:14:34 AM -15.7950 145.7240 345° North 468 539 36,100 -97 Descending FlightAware
Sun 09:15:26 AM -15.7020 145.6990 345° North 468 539 36,100 1,527 Level FlightAware
Sun 09:15:29 AM -15.6694 145.6899 345° North 465 535 37,500  Climbing Aus
Sun 09:16:14 AM -15.6170 145.6750 345° North 468 539 36,100 -800 Descending FlightAware
Sun 09:17:14 AM -15.5100 145.6450 345° North 468 539 36,100  Level FlightAware
Sun 09:17:52 AM -15.4430 145.6260 345° North 468 539 36,100 1,482 Level FlightAware
Sun 09:18:39 AM -15.2682 145.5818 345° North 466 536 38,200  Climbing Aus
Sun 09:18:52 AM -15.3360 145.5970 345° North 468 539 36,100 -2,571 Descending FlightAware
Sun 09:19:28 AM -15.2720 145.5790 345° North 468 539 36,100  Level FlightAware
Sun 09:20:17 AM -15.1850 145.5550 345° North 468 539 36,100  Level FlightAware
Sun 09:20:54 AM -15.1190 145.5360 344° North 468 539 36,100 1,313 Level FlightAware
Sun 09:21:53 AM -14.8584 145.4710 344° North 467 537 38,200  Climbing Aus
Sun 09:21:54 AM -15.0130 145.5070 344° North 468 539 36,100 -3,405 Descending FlightAware
Sun 09:22:30 AM -14.9490 145.4890 345° North 468 539 36,100  Level FlightAware
Sun 09:23:18 AM -14.8630 145.4650 345° North 468 539 36,100  Level FlightAware
Sun 09:23:53 AM -14.8010 145.4480 345° North 468 539 36,100 1,200 Level FlightAware
Sun 09:24:58 AM -14.4698 145.3658 345° North 463 533 38,100 1,008 Climbing Aus
Sun 09:25:58 AM -14.3418 145.3334 346° North 474 545 38,200 44 Climbing Aus
Sun 09:27:13 AM -14.1767 145.3081 352° North 478 550 38,200  Level Aus
Sun 09:28:08 AM -14.0567 145.2885 351° North 472 543 38,200 -52 Level Aus
Sun 09:29:08 AM -13.9265 145.2695 352° North 468 539 38,100 -43 Descending Aus
Sun 09:30:27 AM -13.7546 145.2412 351° North 463 533 38,100 43 Level Aus
Sun 09:31:27 AM -13.6255 145.2206 351° North 464 534 38,200 50 Climbing Aus
Sun 09:32:27 AM -13.4965 145.1991 351° North 465 535 38,200  Level Aus
Sun 09:33:37 AM -13.3463 145.1746 351° North 464 534 38,200  Level Aus
Sun 09:34:37 AM -13.2171 145.1581 353° North 463 533 38,200  Level Aus
Sun 09:35:42 AM -13.0774 145.1357 351° North 463 533 38,200 -44 Level Aus
Sun 09:36:52 AM -12.9278 145.1068 349° North 462 532 38,100 -92 Descending Aus
Sun 09:37:52 AM -12.8002 145.0860 351° North 460 529 38,000 -55 Descending Aus
Sun 09:38:42 AM -12.6935 145.0715 352° North 459 528 38,000  Level Aus
Sun 09:44:07 AM -11.9633 144.9556 355° North 38,000  Level Aus
Sun 09:46:00 AM -12.1976 144.9901 172° South  Level FlightAware
Sun 09:46:59 AM -11.5380 144.8884 356° North 38,000  Level Aus
Sun 09:47:00 AM -12.0732 144.9718 352° North  Level FlightAware
Sun 09:48:00 AM -11.6643 144.9082 171° South  Level FlightAware
Sun 09:49:00 AM -11.7886 144.9278 171° South  Level FlightAware
Sun 09:50:00 AM -11.6694 144.8869 351° North  Level Estimated
Sun 09:51:00 AM -11.5451 144.8680 352° North  Level FlightAware
Sun 09:52:00 AM -11.4208 144.8490 352° North  Level FlightAware
Sun 09:53:00 AM -11.2964 144.8301 352° North  Level FlightAware
Sun 09:54:00 AM -11.1721 144.8112 352° North  Level FlightAware
Sun 09:55:00 AM -11.0478 144.7923 352° North  Level FlightAware
Sun 09:56:00 AM -10.9234 144.7734 352° North  Level FlightAware
Sun 09:57:00 AM -10.7991 144.7545 352° North  Level FlightAware
Sun 09:58:00 AM -10.6747 144.7357 352° North  Level FlightAware
Sun 09:59:00 AM -10.5504 144.7168 352° North  Level FlightAware
Sun 10:00:00 AM -10.4261 144.6980 352° North  Level FlightAware
Sun 10:01:00 AM -10.3017 144.6792 352° North  Level FlightAware
Sun 10:02:00 AM -10.1774 144.6604 352° North  Level FlightAware
Sun 10:03:00 AM -10.0530 144.6417 352° North  Level FlightAware
Sun 10:04:00 AM -9.9287 144.6229 352° North  Level FlightAware
Sun 10:04:06 AM -9.2251 144.5264 357° North 38,000  Level Aus
Sun 10:06:00 AM -8.9890 144.4897 351° North  Level FlightAware
Sun 10:07:00 AM -8.8647 144.4704 351° North  Level FlightAware
Sun 10:08:00 AM -8.7405 144.4512 351° North  Level FlightAware
Sun 10:09:00 AM -8.6162 144.4319 351° North  Level FlightAware
Sun 10:10:00 AM -8.4919 144.4127 351° North  Level FlightAware
Sun 10:11:00 AM -8.3677 144.3935 351° North  Level FlightAware
Sun 10:12:00 AM -8.2434 144.3743 351° North  Level FlightAware
Sun 10:13:00 AM -8.1192 144.3551 351° North  Level FlightAware
Sun 10:14:00 AM -7.9949 144.3359 351° North  Level FlightAware
Sun 10:15:00 AM -7.8706 144.3167 351° North  Level FlightAware
Sun 10:16:00 AM -7.7463 144.2975 351° North  Level FlightAware
Sun 10:17:00 AM -7.6221 144.2784 351° North  Level FlightAware
Sun 10:18:00 AM -7.4978 144.2592 351° North  Level FlightAware
Sun 10:19:00 AM -7.3735 144.2401 351° North  Level FlightAware
Sun 10:20:00 AM -7.4978 144.2592 171° South  Level FlightAware
Sun 10:21:00 AM -7.3735 144.2401 351° North  Level FlightAware
Sun 10:22:00 AM -7.4978 144.2592 171° South  Level FlightAware
Sun 10:23:00 AM -7.3735 144.2401 351° North  Level FlightAware
Sun 10:24:00 AM -7.4978 144.2592 171° South  Level FlightAware
Sun 10:25:00 AM -7.3735 144.2401 351° North  Level FlightAware
Sun 10:26:00 AM -7.4978 144.2592 171° South  Level FlightAware
Sun 10:27:00 AM -7.3750 144.2464 358° North  Level FlightAware
Sun 10:28:00 AM -7.2494 144.2422 358° North  Level FlightAware
Sun 10:28:23 AM -5.9174 144.1973 358° North 38,000  Level Aus
Sun 10:30:00 AM -5.7143 144.1905 358° North  Level FlightAware
Sun 10:31:00 AM -5.5887 144.1863 358° North  Level FlightAware
Sun 10:32:00 AM -5.4630 144.1821 358° North  Level FlightAware
Sun 10:33:00 AM -5.3374 144.1779 358° North  Level FlightAware
Sun 10:34:00 AM -5.2118 144.1736 358° North  Level FlightAware
Sun 10:35:00 AM -5.0861 144.1694 358° North  Level FlightAware
Sun 10:36:00 AM -4.9605 144.1652 358° North  Level FlightAware
Sun 10:37:00 AM -4.8348 144.1610 358° North  Level FlightAware
Sun 10:38:00 AM -4.7092 144.1568 358° North  Level FlightAware
Sun 10:39:00 AM -4.5836 144.1526 358° North  Level FlightAware
Sun 10:40:00 AM -4.4579 144.1484 358° North  Level FlightAware
Sun 10:41:00 AM -4.3323 144.1442 358° North  Level FlightAware
Sun 10:42:00 AM -4.2066 144.1400 358° North  Level FlightAware
Sun 10:43:00 AM -4.0810 144.1358 358° North  Level FlightAware
Sun 10:44:00 AM -3.9554 144.1316 358° North  Level FlightAware
Sun 10:45:00 AM -3.8297 144.1274 358° North  Level FlightAware
Sun 10:46:00 AM -3.7041 144.1232 358° North  Level FlightAware
Sun 10:47:00 AM -3.5784 144.1190 358° North  Level FlightAware
Sun 10:48:00 AM -3.4528 144.1149 358° North  Level FlightAware
Sun 10:49:00 AM -3.3272 144.1107 358° North  Level FlightAware
Sun 10:50:00 AM -3.2015 144.1065 358° North  Level FlightAware
Sun 10:51:00 AM -3.0759 144.1023 358° North  Level FlightAware
Sun 10:52:00 AM -2.9502 144.0981 358° North  Level FlightAware
Sun 10:53:00 AM -2.8246 144.0939 358° North  Level FlightAware
Sun 10:54:00 AM -2.6990 144.0897 358° North  Level FlightAware
Sun 10:55:00 AM -2.5733 144.0856 358° North  Level FlightAware
Sun 10:56:00 AM -2.4477 144.0814 358° North  Level FlightAware
Sun 10:57:00 AM -2.3220 144.0772 358° North  Level FlightAware
Sun 10:58:00 AM -2.1964 144.0730 358° North  Level FlightAware
Sun 10:59:00 AM -2.0708 144.0688 358° North  Level FlightAware
Sun 11:00:00 AM -1.9451 144.0647 358° North  Level FlightAware
Sun 11:01:00 AM -1.8195 144.0605 358° North  Level FlightAware
Sun 11:02:00 AM -1.6938 144.0563 358° North  Level FlightAware
Sun 11:03:00 AM -1.5682 144.0521 358° North  Level FlightAware
Sun 11:04:00 AM -1.4426 144.0479 358° North  Level FlightAware
Sun 11:05:00 AM -1.3169 144.0438 358° North  Level FlightAware
Sun 11:06:00 AM -1.1913 144.0396 358° North  Level FlightAware
Sun 11:07:00 AM -1.0656 144.0354 358° North  Level FlightAware
Sun 11:08:00 AM -0.9400 144.0312 358° North  Level FlightAware
Sun 11:09:00 AM -0.8144 144.0271 358° North  Level FlightAware
Sun 11:10:00 AM -0.6887 144.0229 358° North  Level FlightAware
Sun 11:11:00 AM -0.5631 144.0187 358° North  Level FlightAware
Sun 11:12:00 AM -0.4374 144.0145 358° North  Level FlightAware
Sun 11:13:00 AM -0.3118 144.0104 358° North  Level FlightAware
Sun 11:14:00 AM -0.1862 144.0062 358° North  Level FlightAware
Sun 11:15:00 AM -0.0605 144.0020 358° North  Level FlightAware
Sun 11:16:00 AM 0.0651 143.9978 358° North  Level FlightAware
Sun 11:16:49 AM 0.0000 144.0000 356° North 457 526 38,000  Level Oakland Oceanic
Sun 11:17:00 AM -0.0605 144.0020 178° South  Level FlightAware
Sun 11:18:00 AM 0.0651 143.9978 358° North  Level FlightAware
Sun 11:19:00 AM -0.0605 144.0020 178° South  Level FlightAware
Sun 11:20:00 AM 0.0651 143.9978 358° North  Level FlightAware
Sun 11:21:00 AM -0.0605 144.0020 178° South  Level FlightAware
Sun 11:22:00 AM 0.6410 143.9510 356° North 457 526 38,000  Level FlightAware
Sun 11:23:00 AM 0.7692 143.9412 356° North 457 526 38,000  Level FlightAware
Sun 11:24:00 AM 0.8974 143.9314 356° North 457 526 38,000  Level FlightAware
Sun 11:25:00 AM 1.0257 143.9216 356° North 457 526 38,000  Level FlightAware
Sun 11:26:00 AM 1.1538 143.9117 356° North 457 526 38,000  Level FlightAware
Sun 11:27:00 AM 1.2821 143.9019 356° North 457 526 38,000  Level FlightAware
Sun 11:28:00 AM 1.4103 143.8921 356° North 457 526 38,000  Level FlightAware
Sun 11:28:16 AM 1.5000 143.8833 356° North 458 527 38,000  Level Oakland Oceanic
Sun 11:29:00 AM 1.5385 143.8823 356° North 457 526 38,000  Level FlightAware
Sun 11:30:00 AM 1.6667 143.8725 356° North 457 526 38,000  Level FlightAware
Sun 11:31:00 AM 1.7949 143.8627 356° North 457 526 38,000  Level FlightAware
Sun 11:32:00 AM 1.9231 143.8529 356° North 457 526 38,000  Level FlightAware
Sun 11:33:00 AM 2.0513 143.8431 356° North 457 526 38,000  Level FlightAware
Sun 11:34:00 AM 2.2778 143.8242 356° North 458 527 38,000  Level FlightAware
Sun 11:35:00 AM 2.4074 143.8144 356° North 458 527 38,000  Level FlightAware
Sun 11:36:00 AM 2.5370 143.8045 356° North 458 527 38,000  Level FlightAware
Sun 11:37:00 AM 2.6667 143.7946 356° North 458 527 38,000  Level FlightAware
Sun 11:38:00 AM 2.7963 143.7848 356° North 458 527 38,000  Level FlightAware
Sun 11:39:00 AM 2.9259 143.7749 356° North 458 527 38,000  Level FlightAware
Sun 11:40:00 AM 3.0556 143.7650 356° North 458 527 38,000  Level FlightAware
Sun 11:41:00 AM 3.1852 143.7552 356° North 458 527 38,000  Level FlightAware
Sun 11:42:00 AM 3.3148 143.7453 356° North 458 527 38,000  Level FlightAware
Sun 11:42:08 AM 3.3167 143.7500 355° North 462 532 38,000  Level Oakland Oceanic
Sun 11:43:00 AM 3.4444 143.7354 356° North 458 527 38,000  Level FlightAware
Sun 11:44:00 AM 3.5741 143.7255 356° North 458 527 38,000  Level FlightAware
Sun 11:45:00 AM 3.7037 143.7157 356° North 458 527 38,000  Level FlightAware
Sun 11:46:00 AM 3.8333 143.7058 356° North 458 527 38,000  Level FlightAware
Sun 11:47:00 AM 3.9630 143.6959 356° North 458 527 38,000  Level FlightAware
Sun 11:48:00 AM 4.0936 143.6885 355° North 462 532 38,000  Level FlightAware
Sun 11:49:00 AM 4.2231 143.6783 355° North 462 532 38,000  Level FlightAware
Sun 11:50:00 AM 4.3526 143.6680 355° North 462 532 38,000  Level FlightAware
Sun 11:51:00 AM 4.4820 143.6577 355° North 462 532 38,000  Level FlightAware
Sun 11:52:00 AM 4.6115 143.6475 355° North 462 532 38,000  Level FlightAware
Sun 11:53:00 AM 4.7410 143.6372 355° North 462 532 38,000  Level FlightAware
Sun 11:54:00 AM 4.8705 143.6269 355° North 462 532 38,000  Level FlightAware
Sun 11:55:00 AM 5.0000 143.6167 351° North 462 532 38,000  Level FlightAware
Sun 11:55:22 AM 5.0000 143.6167 351° North 456 525 38,000  Level Oakland Oceanic
Sun 11:56:00 AM 5.1320 143.5957 351° North 462 532 38,000  Level FlightAware
Sun 11:56:22 AM 5.1333 143.6000 351° North 455 524 38,000  Level Oakland Oceanic
Sun 11:57:00 AM 5.2640 143.5747 351° North 462 532 38,000  Level FlightAware
Sun 11:58:00 AM 5.3960 143.5537 351° North 462 532 38,000  Level FlightAware
Sun 11:59:00 AM 5.5280 143.5327 351° North 462 532 38,000  Level FlightAware
Sun 12:00:00 PM 5.6600 143.5117 351° North 462 532 38,000  Level FlightAware
Sun 12:01:00 PM 5.7514 143.4972 351° North 456 525 38,000  Level FlightAware
Sun 12:02:00 PM 5.8834 143.4800 351° North 455 524 38,000  Level FlightAware
Sun 12:03:00 PM 6.0084 143.4599 351° North 455 524 38,000  Level FlightAware
Sun 12:04:00 PM 6.1334 143.4399 351° North 455 524 38,000  Level FlightAware
Sun 12:05:00 PM 6.2585 143.4198 351° North 455 524 38,000  Level FlightAware
Sun 12:06:00 PM 6.3835 143.3998 351° North 455 524 38,000  Level FlightAware
Sun 12:07:00 PM 6.5085 143.3797 351° North 455 524 38,000  Level FlightAware
Sun 12:08:00 PM 6.6335 143.3596 351° North 455 524 38,000  Level FlightAware
Sun 12:09:00 PM 6.7585 143.3395 351° North 455 524 38,000  Level FlightAware
Sun 12:09:53 PM 6.9333 143.3167 351° North 457 526 38,000  Level Oakland Oceanic
Sun 12:10:00 PM 6.8835 143.3194 351° North 455 524 38,000  Level FlightAware
Sun 12:11:00 PM 7.0085 143.2993 351° North 455 524 38,000  Level FlightAware
Sun 12:12:00 PM 7.1335 143.2792 351° North 455 524 38,000  Level FlightAware
Sun 12:13:00 PM 7.2585 143.2591 351° North 455 524 38,000  Level FlightAware
Sun 12:14:00 PM 7.3835 143.2389 351° North 455 524 38,000  Level FlightAware
Sun 12:15:00 PM 7.5085 143.2188 351° North 455 524 38,000  Level FlightAware
Sun 12:16:00 PM 7.7030 143.1913 351° North 457 526 38,000  Level FlightAware
Sun 12:17:00 PM 7.8312 143.1703 351° North 457 526 38,000  Level FlightAware
Sun 12:18:00 PM 7.9595 143.1494 351° North 457 526 38,000  Level FlightAware
Sun 12:19:00 PM 8.0878 143.1284 351° North 457 526 38,000  Level FlightAware
Sun 12:20:00 PM 8.2160 143.1074 351° North 457 526 38,000  Level FlightAware
Sun 12:21:00 PM 8.3443 143.0864 351° North 457 526 38,000  Level FlightAware
Sun 12:22:00 PM 8.4725 143.0654 351° North 457 526 38,000  Level FlightAware
Sun 12:23:00 PM 8.6008 143.0444 351° North 457 526 38,000  Level FlightAware
Sun 12:23:45 PM 8.7500 143.0167 351° North 456 525 38,000  Level Oakland Oceanic
Sun 12:24:00 PM 8.7291 143.0233 351° North 457 526 38,000  Level FlightAware
Sun 12:25:00 PM 8.8573 143.0023 351° North 457 526 38,000  Level FlightAware
Sun 12:26:00 PM 8.9856 142.9812 351° North 457 526 38,000  Level FlightAware
Sun 12:27:00 PM 9.1138 142.9601 351° North 457 526 38,000  Level FlightAware
Sun 12:28:00 PM 9.2421 142.9391 351° North 457 526 38,000  Level FlightAware
Sun 12:29:00 PM 9.4300 142.9068 351° North 456 525 38,000  Level FlightAware
Sun 12:30:00 PM 9.5433 142.8885 351° North 456 525 38,000  Level FlightAware
Sun 12:31:00 PM 9.6567 142.8701 351° North 456 525 38,000  Level FlightAware
Sun 12:32:00 PM 9.7700 142.8517 351° North 456 525 38,000  Level FlightAware
Sun 12:33:00 PM 9.8833 142.8333 356° North 456 525 38,000  Level FlightAware
Sun 12:33:07 PM 9.9667 142.8333 356° North 500 575 38,000  Level Guam Center
Sun 12:34:00 PM 10.0148 142.8251 356° North 456 525 38,000  Level FlightAware
Sun 12:34:07 PM 10.0833 142.8333 360° North 470 541 38,000  Level Guam Center
Sun 12:35:00 PM 10.1463 142.8168 356° North 456 525 38,000  Level FlightAware
Sun 12:35:07 PM 10.2167 142.8167 353° North 460 529 38,000  Level Guam Center
Sun 12:36:00 PM 10.2778 142.8085 356° North 456 525 38,000  Level FlightAware
Sun 12:36:07 PM 10.3500 142.8000 353° North 470 541 38,000  Level Guam Center
Sun 12:37:00 PM 10.4093 142.8002 356° North 456 525 38,000  Level FlightAware
Sun 12:37:07 PM 10.4667 142.7833 352° North 470 541 38,000  Level Guam Center
Sun 12:38:00 PM 10.5407 142.7919 356° North 456 525 38,000  Level FlightAware
Sun 12:38:08 PM 10.6000 142.7667 353° North 470 541 38,000  Level Guam Center
Sun 12:39:08 PM 10.7333 142.7500 353° North 480 552 38,000  Level Guam Center
Sun 12:40:08 PM 10.8667 142.7333 353° North 470 541 38,000  Level Guam Center
Sun 12:41:08 PM 11.0000 142.7000 346° North 470 541 38,000  Level Guam Center
Sun 12:42:08 PM 11.1333 142.6833 353° North 460 529 38,000  Level Guam Center
Sun 12:43:08 PM 11.2500 142.6667 352° North 460 529 38,000  Level Guam Center
Sun 12:44:09 PM 11.3833 142.6500 353° North 470 541 38,000  Level Guam Center
Sun 12:45:08 PM 11.5167 142.6333 353° North 470 541 38,000  Level Guam Center
Sun 12:46:08 PM 11.6500 142.6167 353° North 460 529 38,000  Level Guam Center
Sun 12:47:08 PM 11.7667 142.6000 352° North 460 529 38,000  Level Guam Center
Sun 12:48:09 PM 11.9000 142.5833 353° North 470 541 38,000  Level Guam Center
Sun 12:49:09 PM 12.0333 142.5667 353° North 470 541 38,000  Level Guam Center
Sun 12:50:09 PM 12.1667 142.5500 353° North 470 541 38,000  Level Guam Center
Sun 12:51:09 PM 12.3000 142.5333 353° North 470 541 38,000  Level Guam Center
Sun 12:52:09 PM 12.4167 142.5167 352° North 460 529 38,000  Level Guam Center
Sun 12:53:09 PM 12.5500 142.5000 353° North 470 541 38,000  Level Guam Center
Sun 12:54:10 PM 12.6833 142.4667 346° North 470 541 38,000  Level Guam Center
Sun 12:55:10 PM 12.8167 142.4500 353° North 470 541 38,000  Level Guam Center
Sun 12:56:10 PM 12.9500 142.4333 353° North 480 552 38,000  Level Guam Center
Sun 12:57:10 PM 13.0833 142.4167 353° North 480 552 38,000  Level Guam Center
Sun 12:58:10 PM 13.2000 142.4000 352° North 470 541 38,000  Level Guam Center
Sun 12:59:10 PM 13.3333 142.3833 353° North 460 529 38,000  Level Guam Center
Sun 01:00:11 PM 13.4667 142.3667 353° North 460 529 38,000  Level Guam Center
Sun 01:01:11 PM 13.5833 142.3500 352° North 460 529 38,000  Level Guam Center
Sun 01:02:11 PM 13.7167 142.3333 353° North 480 552 38,000  Level Guam Center
Sun 01:03:11 PM 13.8500 142.3167 353° North 470 541 38,000  Level Guam Center
Sun 01:04:11 PM 13.9833 142.3000 353° North 460 529 38,000  Level Guam Center
Sun 01:05:11 PM 14.1000 142.2833 352° North 460 529 38,000  Level Guam Center
Sun 01:06:11 PM 14.2333 142.2667 353° North 470 541 38,000  Level Guam Center
Sun 01:07:12 PM 14.3667 142.2333 346° North 460 529 38,000  Level Guam Center
Sun 01:08:12 PM 14.4833 142.2167 352° North 460 529 38,000  Level Guam Center
Sun 01:09:12 PM 14.6167 142.2000 353° North 460 529 38,000  Level Guam Center
Sun 01:10:12 PM 14.7333 142.1833 352° North 450 518 38,000  Level Guam Center
Sun 01:11:12 PM 14.8667 142.1667 353° North 450 518 38,000  Level Guam Center
Sun 01:12:12 PM 15.0000 142.1500 353° North 460 529 38,000  Level Guam Center
Sun 01:13:13 PM 15.1167 142.1333 352° North 450 518 38,000  Level Guam Center
Sun 01:14:13 PM 15.2333 142.1167 352° North 450 518 38,000  Level Guam Center
Sun 01:15:13 PM 15.3667 142.1000 353° North 460 529 38,000  Level Guam Center
Sun 01:16:12 PM 15.5000 142.0833 353° North 460 529 38,000  Level Guam Center
Sun 01:17:13 PM 15.6167 142.0667 352° North 460 529 38,000  Level Guam Center
Sun 01:18:13 PM 15.7500 142.0500 353° North 460 529 38,000  Level Guam Center
Sun 01:19:13 PM 15.8667 142.0333 352° North 450 518 38,000  Level Guam Center
Sun 01:20:13 PM 16.0000 142.0167 353° North 460 529 38,000  Level Guam Center
Sun 01:21:13 PM 16.1333 142.0000 353° North 460 529 38,000  Level Guam Center
Sun 01:22:13 PM 16.2500 141.9833 352° North 460 529 38,000  Level Guam Center
Sun 01:23:14 PM 16.3833 141.9500 347° North 450 518 38,000  Level Guam Center
Sun 01:24:14 PM 16.5000 141.9333 352° North 460 529 38,000  Level Guam Center
Sun 01:24:42 PM 16.5833 141.9500 319° Northwest 457 526 38,000  Level Oakland Oceanic
Sun 01:32:00 PM 17.2611 141.3346 319° Northwest 457 526 38,000  Level FlightAware
Sun 01:33:00 PM 17.3578 141.2463 319° Northwest 457 526 38,000  Level FlightAware
Sun 01:33:05 PM 17.4000 141.2167 319° Northwest 458 527 38,000  Level Oakland Oceanic
Sun 01:34:00 PM 17.4544 141.1579 319° Northwest 457 526 38,000  Level FlightAware
Sun 01:35:00 PM 17.5510 141.0694 319° Northwest 457 526 38,000  Level FlightAware
Sun 01:36:00 PM 17.6476 140.9809 319° Northwest 457 526 38,000  Level FlightAware
Sun 01:37:00 PM 17.7441 140.8922 319° Northwest 457 526 38,000  Level FlightAware
Sun 01:38:00 PM 17.8405 140.8034 319° Northwest 457 526 38,000  Level FlightAware
Sun 01:39:00 PM 17.9725 140.6895 319° Northwest 458 527 38,000  Level FlightAware
Sun 01:40:00 PM 18.0678 140.6013 319° Northwest 458 527 38,000  Level FlightAware
Sun 01:41:00 PM 18.1630 140.5130 319° Northwest 458 527 38,000  Level FlightAware
Sun 01:42:00 PM 18.2582 140.4246 319° Northwest 458 527 38,000  Level FlightAware
Sun 01:43:00 PM 18.3533 140.3361 319° Northwest 458 527 38,000  Level FlightAware
Sun 01:44:00 PM 18.4484 140.2475 319° Northwest 458 527 38,000  Level FlightAware
Sun 01:45:00 PM 18.5435 140.1588 318° Northwest 458 527 38,000  Level FlightAware
Sun 01:46:00 PM 18.6385 140.0701 318° Northwest 458 527 38,000 1,034 Level FlightAware
Sun 01:46:56 PM 18.7500 139.9500 319° Northwest 474 545 40,000  Climbing Oakland Oceanic
Sun 01:47:00 PM 18.7335 139.9812 318° Northwest 458 527 38,000 -1,875 Descending FlightAware
Sun 01:48:00 PM 18.8285 139.8922 318° Northwest 458 527 38,000  Level FlightAware
Sun 01:49:00 PM 18.9234 139.8031 318° Northwest 458 527 38,000  Level FlightAware
Sun 01:50:00 PM 19.0182 139.7139 318° Northwest 458 527 38,000  Level FlightAware
Sun 01:51:00 PM 19.1131 139.6247 318° Northwest 458 527 38,000  Level FlightAware
Sun 01:52:00 PM 19.2078 139.5353 318° Northwest 458 527 38,000 1,000 Level FlightAware
Sun 01:53:00 PM 19.3394 139.3992 318° Northwest 474 545 40,000 1,000 Climbing FlightAware
Sun 01:54:00 PM 19.4374 139.3071 318° Northwest 474 545 40,000  Level FlightAware
Sun 01:55:00 PM 19.5355 139.2148 318° Northwest 474 545 40,000  Level FlightAware
Sun 01:56:00 PM 19.6334 139.1224 318° Northwest 474 545 40,000  Level FlightAware
Sun 01:57:00 PM 19.7314 139.0299 318° Northwest 474 545 40,000  Level FlightAware
Sun 01:58:00 PM 19.8293 138.9373 318° Northwest 474 545 40,000  Level FlightAware
Sun 01:59:00 PM 19.9271 138.8445 318° Northwest 474 545 40,000  Level FlightAware
Sun 02:00:00 PM 20.0249 138.7517 318° Northwest 474 545 40,000  Level FlightAware
Sun 02:00:58 PM 20.1167 138.6833 318° Northwest 474 545 40,000  Level Oakland Oceanic
Sun 02:01:00 PM 20.1226 138.6587 318° Northwest 474 545 40,000  Level FlightAware
Sun 02:02:00 PM 20.2203 138.5656 318° Northwest 474 545 40,000  Level FlightAware
Sun 02:03:00 PM 20.3179 138.4724 318° Northwest 474 545 40,000  Level FlightAware
Sun 02:04:00 PM 20.4155 138.3791 318° Northwest 474 545 40,000  Level FlightAware
Sun 02:05:00 PM 20.5131 138.2857 318° Northwest 474 545 40,000  Level FlightAware
Sun 02:06:00 PM 20.6105 138.1921 318° Northwest 474 545 40,000  Level FlightAware
Sun 02:07:00 PM 20.7060 138.1067 317° Northwest 474 545 40,000  Level FlightAware
Sun 02:08:00 PM 20.8041 138.0101 317° Northwest 474 545 40,000  Level FlightAware
Sun 02:09:00 PM 20.9021 137.9135 317° Northwest 474 545 40,000  Level FlightAware
Sun 02:10:00 PM 21.0000 137.8167 330° Northwest 474 545 40,000  Level FlightAware
Sun 02:11:00 PM 21.1160 137.7463 330° Northwest 474 545 40,000  Level FlightAware
Sun 02:12:00 PM 21.2320 137.6758 330° Northwest 474 545 40,000  Level FlightAware
Sun 02:13:00 PM 21.3479 137.6053 330° Northwest 474 545 40,000  Level FlightAware
Sun 02:14:00 PM 21.4638 137.5346 330° Northwest 474 545 40,000  Level FlightAware
Sun 02:15:00 PM 21.5797 137.4638 330° Northwest 474 545 40,000  Level FlightAware
Sun 02:16:00 PM 21.6955 137.3928 330° Northwest 474 545 40,000  Level FlightAware
Sun 02:17:00 PM 21.8113 137.3218 330° Northwest 474 545 40,000  Level FlightAware
Sun 02:18:00 PM 21.9271 137.2507 330° Northwest 474 545 40,000  Level FlightAware
Sun 02:19:00 PM 22.0429 137.1794 330° Northwest 474 545 40,000  Level FlightAware
Sun 02:20:00 PM 22.1586 137.1080 330° Northwest 474 545 40,000  Level FlightAware
Sun 02:21:00 PM 22.2743 137.0365 330° Northwest 474 545 40,000  Level FlightAware
Sun 02:22:00 PM 22.3899 136.9649 330° Northwest 474 545 40,000  Level FlightAware
Sun 02:23:00 PM 22.5056 136.8932 330° Northwest 474 545 40,000  Level FlightAware
Sun 02:24:00 PM 22.6211 136.8213 330° Northwest 474 545 40,000  Level FlightAware
Sun 02:25:00 PM 22.7367 136.7493 330° Northwest 474 545 40,000  Level FlightAware
Sun 02:26:00 PM 22.8522 136.6772 330° Northwest 474 545 40,000  Level FlightAware
Sun 02:27:00 PM 22.9678 136.6050 330° Northwest 474 545 40,000  Level FlightAware
Sun 02:28:00 PM 23.0832 136.5327 330° Northwest 474 545 40,000  Level FlightAware
Sun 02:29:00 PM 23.1987 136.4602 330° Northwest 474 545 40,000  Level FlightAware
Sun 02:30:00 PM 23.3141 136.3876 330° Northwest 474 545 40,000  Level FlightAware
Sun 02:31:00 PM 23.4294 136.3149 330° Northwest 474 545 40,000  Level FlightAware
Sun 02:32:00 PM 23.5448 136.2420 330° Northwest 474 545 40,000  Level FlightAware
Sun 02:33:00 PM 23.6600 136.1691 330° Northwest 474 545 40,000  Level FlightAware
Sun 02:34:00 PM 23.7753 136.0960 330° Northwest 474 545 40,000  Level FlightAware
Sun 02:35:00 PM 23.8905 136.0227 330° Northwest 474 545 40,000  Level FlightAware
Sun 02:36:00 PM 24.0057 135.9494 330° Northwest 474 545 40,000  Level FlightAware
Sun 02:37:00 PM 24.1209 135.8759 330° Northwest 474 545 40,000  Level FlightAware
Sun 02:38:00 PM 24.2360 135.8022 330° Northwest 474 545 40,000  Level FlightAware
Sun 02:39:00 PM 24.3511 135.7285 330° Northwest 474 545 40,000  Level FlightAware
Sun 02:40:00 PM 24.4662 135.6546 330° Northwest 474 545 40,000  Level FlightAware
Sun 02:41:00 PM 24.5812 135.5806 330° Northwest 474 545 40,000  Level FlightAware
Sun 02:42:00 PM 24.6962 135.5064 330° Northwest 474 545 40,000  Level FlightAware
Sun 02:43:00 PM 24.8111 135.4321 330° Northwest 474 545 40,000  Level FlightAware
Sun 02:44:00 PM 24.9260 135.3576 330° Northwest 474 545 40,000  Level FlightAware
Sun 02:45:00 PM 25.0409 135.2831 330° Northwest 474 545 40,000  Level FlightAware
Sun 02:46:00 PM 25.1557 135.2083 329° Northwest 474 545 40,000  Level FlightAware
Sun 02:47:00 PM 25.2705 135.1335 329° Northwest 474 545 40,000  Level FlightAware
Sun 02:48:00 PM 25.3853 135.0585 329° Northwest 474 545 40,000  Level FlightAware
Sun 02:49:00 PM 25.4886 134.9793 325° Northwest  Level FlightAware
Sun 02:50:00 PM 25.3853 135.0585 145° Southeast  Level FlightAware
Sun 02:51:00 PM 25.4951 134.9907 329° Northwest  Level Estimated
Sun 02:52:00 PM 25.6024 134.9182 329° Northwest  Level FlightAware
Sun 02:53:00 PM 25.7097 134.8455 329° Northwest  Level FlightAware
Sun 02:54:00 PM 25.8169 134.7727 329° Northwest  Level FlightAware
Sun 02:55:00 PM 25.9241 134.6998 329° Northwest  Level FlightAware
Sun 02:56:00 PM 26.0313 134.6268 329° Northwest  Level FlightAware
Sun 02:57:00 PM 26.1409 134.5584 329° Northwest  Level Estimated
Sun 02:58:00 PM 26.2483 134.4855 329° Northwest  Level FlightAware
Sun 02:59:00 PM 26.3555 134.4124 329° Northwest  Level FlightAware
Sun 03:00:00 PM 26.4628 134.3393 329° Northwest  Level FlightAware
Sun 03:01:00 PM 26.5700 134.2659 329° Northwest  Level FlightAware
Sun 03:02:00 PM 26.6772 134.1925 329° Northwest  Level FlightAware
Sun 03:03:00 PM 26.7843 134.1189 328° Northwest  Level FlightAware
Sun 03:04:00 PM 26.8914 134.0451 328° Northwest  Level FlightAware
Sun 03:05:00 PM 26.9984 133.9713 328° Northwest  Level FlightAware
Sun 03:06:00 PM 27.1054 133.8972 328° Northwest  Level FlightAware
Sun 03:07:00 PM 27.2124 133.8231 328° Northwest  Level FlightAware
Sun 03:08:00 PM 27.3193 133.7488 328° Northwest  Level FlightAware
Sun 03:09:00 PM 27.4263 133.6743 328° Northwest  Level FlightAware
Sun 03:10:00 PM 27.5331 133.5997 328° Northwest  Level FlightAware
Sun 03:11:00 PM 27.6399 133.5250 328° Northwest  Level FlightAware
Sun 03:12:00 PM 27.7467 133.4501 328° Northwest  Level FlightAware
Sun 03:13:00 PM 27.8535 133.3751 328° Northwest  Level FlightAware
Sun 03:14:00 PM 27.9601 133.2999 328° Northwest  Level FlightAware
Sun 03:15:00 PM 28.0668 133.2246 328° Northwest  Level FlightAware
Sun 03:16:00 PM 28.1734 133.1491 328° Northwest  Level FlightAware
Sun 03:17:00 PM 28.2800 133.0735 328° Northwest  Level FlightAware
Sun 03:18:00 PM 28.3894 133.0033 328° Northwest  Level Estimated
Sun 03:19:00 PM 28.4959 132.9274 328° Northwest  Level FlightAware
Sun 03:20:00 PM 28.6023 132.8513 328° Northwest  Level FlightAware
Sun 03:21:00 PM 28.7087 132.7750 328° Northwest  Level FlightAware
Sun 03:22:00 PM 28.8151 132.6986 328° Northwest  Level FlightAware
Sun 03:23:00 PM 28.9214 132.6221 328° Northwest  Level FlightAware
Sun 03:24:00 PM 29.0277 132.5453 328° Northwest  Level FlightAware
Sun 03:25:00 PM 29.1339 132.4685 328° Northwest  Level FlightAware
Sun 03:26:00 PM 29.2401 132.3914 328° Northwest  Level FlightAware
Sun 03:27:00 PM 29.3462 132.3142 328° Northwest  Level FlightAware
Sun 03:28:00 PM 29.4523 132.2369 328° Northwest  Level FlightAware
Sun 03:29:00 PM 29.5617 132.1657 327° Northwest  Level Estimated
Sun 03:30:00 PM 29.6670 132.0867 327° Northwest  Level FlightAware
Sun 03:31:00 PM 29.7722 132.0075 327° Northwest  Level FlightAware
Sun 03:32:00 PM 29.8773 131.9281 327° Northwest  Level FlightAware
Sun 03:33:00 PM 29.9824 131.8486 327° Northwest  Level FlightAware
Sun 03:34:00 PM 30.0875 131.7689 327° Northwest  Level FlightAware
Sun 03:35:00 PM 30.1969 131.6974 327° Northwest  Level Estimated
Sun 03:36:00 PM 30.3025 131.6185 327° Northwest  Level FlightAware
Sun 03:37:00 PM 30.4080 131.5394 327° Northwest  Level FlightAware
Sun 03:38:00 PM 30.5135 131.4601 327° Northwest  Level FlightAware
Sun 03:39:00 PM 30.6189 131.3806 327° Northwest  Level FlightAware
Sun 03:40:00 PM 30.7243 131.3010 327° Northwest  Level FlightAware
Sun 03:41:00 PM 30.8297 131.2212 327° Northwest  Level FlightAware
Sun 03:41:22 PM 30.9080 130.8790 327° Northwest 443 510 40,000  Level FlightAware
Sun 03:42:00 PM 30.9350 131.1413 327° Northwest  Level FlightAware
Sun 03:42:07 PM 30.9930 130.8470 342° North 442 509 40,000  Level FlightAware
Sun 03:42:42 PM 31.0670 130.8200 343° North 439 505 40,000  Level FlightAware
Sun 03:43:22 PM 31.1450 130.7910 342° North 438 504 40,000  Level FlightAware
Sun 03:44:07 PM 31.2320 130.7580 342° North 441 507 40,000  Level FlightAware
Sun 03:44:52 PM 31.3200 130.7250 342° North 444 511 40,000 70 Level FlightAware
Sun 03:45:33 PM 31.3990 130.6960 343° North 446 513 40,100 71 Climbing FlightAware
Sun 03:46:17 PM 31.4870 130.6620 342° North 447 514 40,100  Level FlightAware
Sun 03:46:53 PM 31.5560 130.6360 342° North 445 512 40,100 -73 Level FlightAware
Sun 03:47:39 PM 31.6450 130.6030 342° North 442 509 40,000 -67 Descending FlightAware
Sun 03:48:22 PM 31.7300 130.5710 342° North 439 505 40,000  Level FlightAware
Sun 03:48:57 PM 31.7990 130.5440 342° North 437 503 40,000  Level FlightAware
Sun 03:49:47 PM 31.8940 130.5070 342° North 435 501 40,000  Level FlightAware
Sun 03:50:28 PM 31.9740 130.4760 342° North 437 503 40,000 71 Level FlightAware
Sun 03:51:12 PM 32.0570 130.4440 342° North 435 501 40,100  Climbing FlightAware
Sun 03:51:53 PM 32.1330 130.4140 342° North 434 499 40,000 -74 Descending FlightAware
Sun 03:52:33 PM 32.2110 130.3840 342° North 436 502 40,000  Level FlightAware
Sun 03:53:12 PM 32.2820 130.3560 342° North 438 504 40,000  Level FlightAware
Sun 03:53:58 PM 32.3740 130.3200 342° North 443 510 40,000 60 Level FlightAware
Sun 03:54:52 PM 32.4800 130.2790 342° North 444 511 40,100 64 Climbing FlightAware
Sun 03:55:32 PM 32.5530 130.2500 341° North 441 507 40,100 -71 Level FlightAware
Sun 03:56:17 PM 32.6410 130.2150 341° North 442 509 40,000 -71 Descending FlightAware
Sun 03:56:57 PM 32.7250 130.1830 342° North 444 511 40,000  Level FlightAware
Sun 03:57:37 PM 32.8010 130.1530 342° North 451 519 40,000 71 Level FlightAware
Sun 03:58:22 PM 32.8850 130.1200 342° North 450 518 40,100  Climbing FlightAware
Sun 03:59:05 PM 32.9580 130.0910 342° North 447 514 40,000 -75 Descending FlightAware
Sun 03:59:42 PM 33.0310 130.0620 342° North 448 516 40,000  Level FlightAware
Sun 04:00:28 PM 33.1230 130.0260 342° North 448 516 40,000  Level FlightAware
Sun 04:01:24 PM 33.2360 129.9810 342° North 447 514 40,000  Level FlightAware
Sun 04:02:29 PM 33.3690 129.9280 342° North 444 511 40,000  Level FlightAware
Sun 04:03:14 PM 33.4460 129.8970 341° North 444 511 40,000  Level FlightAware
Sun 04:04:07 PM 33.5560 129.8540 342° North 444 511 40,000  Level FlightAware
Sun 04:05:07 PM 33.6700 129.8080 341° North 443 510 40,000  Level FlightAware
Sun 04:05:47 PM 33.7450 129.7780 342° North 442 509 40,000  Level FlightAware
Sun 04:06:35 PM 33.8400 129.7260 336° Northwest 435 501 40,000  Level FlightAware
Sun 04:07:14 PM 33.9130 129.6850 335° Northwest 435 501 40,000  Level FlightAware
Sun 04:07:58 PM 33.9920 129.6420 336° Northwest 434 499 40,000  Level FlightAware
Sun 04:08:36 PM 34.0560 129.6070 336° Northwest 434 499 40,000  Level FlightAware
Sun 04:09:21 PM 34.1470 129.5570 336° Northwest 426 490 40,000  Level FlightAware
Sun 04:09:58 PM 34.2060 129.5230 335° Northwest 433 498 40,000  Level FlightAware
Sun 04:10:46 PM 34.2880 129.4770 335° Northwest 434 499 40,000  Level FlightAware
Sun 04:11:43 PM 34.4090 129.4100 335° Northwest 435 501 40,000 62 Level FlightAware
Sun 04:12:23 PM 34.4860 129.3670 335° Northwest 436 502 40,100 75 Climbing FlightAware
Sun 04:13:03 PM 34.5590 129.3260 335° Northwest 434 499 40,100  Level FlightAware
Sun 04:13:48 PM 34.6360 129.2830 335° Northwest 432 497 40,100 -75 Level FlightAware
Sun 04:14:23 PM 34.7030 129.2450 335° Northwest 431 496 40,000 -77 Descending FlightAware
Sun 04:15:06 PM 34.7800 129.2010 335° Northwest 429 494 40,000  Level FlightAware
Sun 04:15:52 PM 34.8550 129.1570 334° Northwest 429 494 40,000  Level FlightAware
Sun 04:16:34 PM 34.9340 129.1110 334° Northwest 428 493 40,000  Level FlightAware
Sun 04:17:14 PM 34.9950 129.0740 334° Northwest 432 497 40,000 73 Level FlightAware
Sun 04:17:56 PM 35.0770 129.0270 335° Northwest 435 501 40,100 71 Climbing FlightAware
Sun 04:18:39 PM 35.1600 128.9780 334° Northwest 436 502 40,100  Level FlightAware
Sun 04:19:21 PM 35.2350 128.9330 334° Northwest 434 499 40,100 -71 Level FlightAware
Sun 04:20:03 PM 35.3100 128.8890 334° Northwest 429 494 40,000 -86 Descending FlightAware
Sun 04:20:31 PM 35.3590 128.8600 334° Northwest 428 493 40,000  Level FlightAware
Sun 04:21:15 PM 35.4380 128.8140 335° Northwest 424 488 40,000  Level FlightAware
Sun 04:21:56 PM 35.5130 128.7680 333° Northwest 424 488 40,000  Level FlightAware
Sun 04:22:38 PM 35.5850 128.7260 335° Northwest 426 490 40,000  Level FlightAware
Sun 04:24:30 PM 35.6690 128.6760 334° Northwest 426 490 40,000  Level FlightAware
Sun 04:25:32 PM 35.7620 128.6200 334° Northwest 426 490 40,000  Level FlightAware
Sun 04:26:08 PM 35.8160 128.5870 334° Northwest 426 490 40,000  Level FlightAware
Sun 04:26:53 PM 35.8840 128.5460 334° Northwest 426 490 40,000  Level FlightAware
Sun 04:27:19 PM 35.9230 128.5230 334° Northwest 426 490 40,000  Level FlightAware
Sun 04:27:56 PM 35.9790 128.4890 334° Northwest 426 490 40,000  Level FlightAware
Sun 04:28:44 PM 36.0510 128.4460 334° Northwest 426 490 40,000  Level FlightAware
Sun 04:29:20 PM 36.1050 128.4130 334° Northwest 426 490 40,000  Level FlightAware
Sun 04:30:07 PM 36.1760 128.3700 334° Northwest 426 490 40,000  Level FlightAware
Sun 04:30:45 PM 36.2330 128.3360 334° Northwest 426 490 40,000  Level FlightAware
Sun 04:31:32 PM 36.3040 128.2930 334° Northwest 426 490 40,000  Level FlightAware
Sun 04:32:18 PM 36.3730 128.2510 334° Northwest 426 490 40,000  Level FlightAware
Sun 04:32:54 PM 36.4280 128.2180 334° Northwest 426 490 40,000  Level FlightAware
Sun 04:33:42 PM 36.5000 128.1740 334° Northwest 426 490 40,000  Level FlightAware
Sun 04:36:00 PM 36.6080 127.9862 306° West  Level Estimated
Sun 04:37:00 PM 36.6549 127.9044 306° West  Level Estimated
Sun 04:38:00 PM 36.7017 127.8224 305° West  Level Estimated
Sun 04:39:00 PM 36.7485 127.7404 305° West  Level Estimated
Sun 04:40:00 PM 36.7952 127.6583 305° West  Level Estimated
Sun 04:41:00 PM 36.8418 127.5761 305° West  Level Estimated
Sun 04:42:00 PM 36.8884 127.4937 305° West  Level Estimated
Sun 04:43:00 PM 36.9350 127.4113 305° West  Level Estimated
Sun 04:44:00 PM 36.9814 127.3288 305° West  Level Estimated
Sun 04:45:00 PM 37.0279 127.2461 305° West  Level Estimated
Sun 04:46:00 PM 37.0742 127.1634 305° West  Level Estimated
Sun 04:47:00 PM 37.1205 127.0806 305° West  Level Estimated
Sun 04:48:00 PM 37.1668 126.9977 305° West  Level Estimated
Sun 04:49:00 PM 37.2130 126.9146 305° West  Level Estimated
Sun 04:50:00 PM 37.2591 126.8315 305° West  Level Estimated
Sun 04:51:00 PM 37.3052 126.7483 305° West  Level Estimated
Sun 04:52:00 PM 37.3512 126.6649 305° West  Level Estimated
Sun 04:53:00 PM 37.3972 126.5815 305° West  Level Estimated
Sun 04:54:00 PM 37.4431 126.4979 305° West  Level Estimated
Sun 04:55:00 PM 37.4691 126.4505 305° West  Level Estimated
Sun 04:56:00 PM 37.4691 126.4505 205° Southwest  Level Estimated
Sun 04:57:00 PM 37.4691 126.4505 335° Northwest  Level Estimated
Sun 04:58:00 PM 37.4691 126.4505 335° Northwest  Level Estimated
Sun 04:59:00 PM 37.4691 126.4505 335° Northwest  Level Estimated
Sun 05:00:00 PM 37.4691 126.4505 335° Northwest  Level Estimated
Sun 05:01:00 PM 37.4691 126.4505 335° Northwest  Level Estimated
Sun 05:02:00 PM 37.4691 126.4505 335° Northwest  Level Estimated
Sun 05:03:00 PM 37.4691 126.4505 335° Northwest  Level Estimated
Sun 05:04:00 PM 37.4691 126.4505 335° Northwest  Level Estimated
Sun 05:05:00 PM 37.4691 126.4505 335° Northwest  Level Estimated

Login

Don't have an account? Register now (free) for customized features, flight alerts, and more!